createdAt,value
2022-08-20T00:01:03.125Z,100205.00
2022-08-20T00:03:41.113Z,100206.00
2022-08-20T00:06:17.433Z,100196.00
2022-08-20T00:08:44.487Z,100203.00
2022-08-20T00:11:13.513Z,100204.00
2022-08-20T00:13:49.379Z,100197.00
2022-08-20T00:16:17.671Z,100209.00
2022-08-20T00:18:44.543Z,100216.00
2022-08-20T00:21:18.932Z,100213.00
2022-08-20T00:23:48.749Z,100212.00
2022-08-20T00:26:15.874Z,100214.00
2022-08-20T00:28:42.414Z,100217.00
2022-08-20T00:31:11.652Z,100218.00
2022-08-20T00:33:38.638Z,100210.00
2022-08-20T00:36:07.107Z,100203.00
2022-08-20T00:38:35.331Z,100208.00
2022-08-20T00:41:02.488Z,100216.00
2022-08-20T00:43:31.292Z,100218.00
2022-08-20T00:45:59.624Z,100214.00
2022-08-20T00:48:28.862Z,100219.00
2022-08-20T00:51:01.801Z,100210.00
2022-08-20T00:53:29.169Z,100207.00
2022-08-20T00:55:56.107Z,100200.00
2022-08-20T00:58:22.665Z,100204.00
2022-08-20T01:00:49.794Z,100211.00
2022-08-20T01:03:19.159Z,100214.00
2022-08-20T01:05:48.863Z,100210.00
2022-08-20T01:08:17.523Z,100216.00
2022-08-20T01:10:48.032Z,100216.00
2022-08-20T01:13:18.446Z,100215.00
2022-08-20T01:15:47.279Z,100215.00
2022-08-20T01:18:14.949Z,100226.00
2022-08-20T01:20:45.225Z,100222.00
2022-08-20T01:23:30.135Z,100221.00
2022-08-20T01:26:14.397Z,100224.00
2022-08-20T01:28:54.898Z,100229.00
2022-08-20T01:31:25.518Z,100222.00
2022-08-20T01:33:53.479Z,100234.00
2022-08-20T01:36:27.036Z,100223.00
2022-08-20T01:38:54.923Z,100221.00
2022-08-20T01:41:33.437Z,100227.00
2022-08-20T01:44:00.217Z,100224.00
2022-08-20T01:46:47.200Z,100225.00
2022-08-20T01:49:22.849Z,100219.00
2022-08-20T01:51:51.605Z,100228.00
2022-08-20T01:54:18.252Z,100224.00
2022-08-20T01:57:13.646Z,100228.00
2022-08-20T01:59:40.571Z,100230.00
2022-08-20T02:02:08.204Z,100228.00
2022-08-20T02:04:34.943Z,100223.00
2022-08-20T02:07:04.218Z,100226.00
2022-08-20T02:09:35.365Z,100230.00
2022-08-20T02:12:03.377Z,100229.00
2022-08-20T02:14:30.648Z,100228.00
2022-08-20T02:16:58.366Z,100233.00
2022-08-20T02:19:38.282Z,100241.00
2022-08-20T02:22:17.362Z,100237.00
2022-08-20T02:24:44.287Z,100248.00
2022-08-20T02:27:11.494Z,100248.00
2022-08-20T02:29:38.888Z,100257.00
2022-08-20T02:32:32.435Z,100253.00
2022-08-20T02:34:53.032Z,100252.00
2022-08-20T02:37:19.552Z,100258.00
2022-08-20T02:39:46.926Z,100261.00
2022-08-20T02:42:14.438Z,100256.00
2022-08-20T02:44:41.087Z,100254.00
2022-08-20T02:47:07.697Z,100251.00
2022-08-20T02:49:34.889Z,100248.00
2022-08-20T02:52:01.482Z,100249.00
2022-08-20T02:54:29.258Z,100243.00
2022-08-20T02:56:56.047Z,100244.00
2022-08-20T02:59:22.587Z,100239.00
2022-08-20T03:01:59.413Z,100246.00
2022-08-20T03:04:29.327Z,100250.00
2022-08-20T03:06:56.600Z,100242.00
2022-08-20T03:09:23.167Z,100235.00
2022-08-20T03:11:49.749Z,100242.00
2022-08-20T03:14:16.314Z,100237.00
2022-08-20T03:16:43.123Z,100233.00
2022-08-20T03:19:09.712Z,100232.00
2022-08-20T03:21:36.723Z,100228.00
2022-08-20T03:24:03.543Z,100230.00
2022-08-20T03:26:30.082Z,100230.00
2022-08-20T03:28:56.709Z,100225.00
2022-08-20T03:31:23.412Z,100229.00
2022-08-20T03:33:53.498Z,100225.00
2022-08-20T03:36:28.080Z,100235.00
2022-08-20T03:39:00.440Z,100219.00
2022-08-20T03:41:27.553Z,100216.00
2022-08-20T03:43:54.855Z,100212.00
2022-08-20T03:46:23.022Z,100219.00
2022-08-20T03:48:56.643Z,100226.00
2022-08-20T03:51:28.315Z,100234.00
2022-08-20T03:53:54.863Z,100227.00
2022-08-20T03:56:21.471Z,100231.00
2022-08-20T03:58:48.006Z,100235.00
2022-08-20T04:01:45.548Z,100231.00
2022-08-20T04:04:01.541Z,100230.00
2022-08-20T04:06:29.619Z,100234.00
2022-08-20T04:08:59.180Z,100247.00
2022-08-20T04:11:25.776Z,100247.00
2022-08-20T04:13:52.326Z,100248.00
2022-08-20T04:16:19.462Z,100244.00
2022-08-20T04:19:01.344Z,100243.00
2022-08-20T04:21:33.019Z,100246.00
2022-08-20T04:24:01.014Z,100236.00
2022-08-20T04:26:27.926Z,100242.00
2022-08-20T04:28:55.431Z,100235.00
2022-08-20T04:31:32.605Z,100231.00
2022-08-20T04:34:00.981Z,100233.00
2022-08-20T04:36:27.673Z,100229.00
2022-08-20T04:38:54.254Z,100226.00
2022-08-20T04:41:23.619Z,100234.00
2022-08-20T04:43:52.019Z,100229.00
2022-08-20T04:46:19.275Z,100232.00
2022-08-20T04:48:48.807Z,100231.00
2022-08-20T04:51:17.155Z,100237.00
2022-08-20T04:53:45.137Z,100243.00
2022-08-20T04:56:23.274Z,100245.00
2022-08-20T04:58:51.154Z,100246.00
2022-08-20T05:01:18.177Z,100250.00
2022-08-20T05:03:47.512Z,100250.00
2022-08-20T05:06:15.979Z,100257.00
2022-08-20T05:08:42.899Z,100260.00
2022-08-20T05:11:34.111Z,100258.00
2022-08-20T05:13:56.850Z,100260.00
2022-08-20T05:16:24.669Z,100262.00
2022-08-20T05:18:52.669Z,100262.00
2022-08-20T05:21:20.689Z,100256.00
2022-08-20T05:23:47.380Z,100252.00
2022-08-20T05:26:31.117Z,100271.00
2022-08-20T05:28:59.485Z,100272.00
2022-08-20T05:31:31.285Z,100281.00
2022-08-20T05:34:30.744Z,100292.00
2022-08-20T05:37:17.736Z,100286.00
2022-08-20T05:39:53.346Z,100291.00
2022-08-20T05:42:24.137Z,100286.00
2022-08-20T05:44:51.522Z,100285.00
2022-08-20T05:47:28.226Z,100281.00
2022-08-20T05:49:54.836Z,100282.00
2022-08-20T05:52:31.202Z,100285.00
2022-08-20T05:54:57.722Z,100282.00
2022-08-20T05:57:46.228Z,100288.00
2022-08-20T06:00:17.090Z,100280.00
2022-08-20T06:03:11.721Z,100285.00
2022-08-20T06:05:38.314Z,100295.00
2022-08-20T06:08:09.920Z,100290.00
2022-08-20T06:10:37.758Z,100288.00
2022-08-20T06:13:05.006Z,100299.00
2022-08-20T06:15:35.338Z,100289.00
2022-08-20T06:18:27.427Z,100293.00
2022-08-20T06:20:58.959Z,100291.00
2022-08-20T06:23:26.525Z,100304.00
2022-08-20T06:25:53.220Z,100298.00
2022-08-20T06:28:20.214Z,100299.00
2022-08-20T06:30:46.958Z,100300.00
2022-08-20T06:33:13.716Z,100303.00
2022-08-20T06:35:40.319Z,100303.00
2022-08-20T06:38:09.902Z,100299.00
2022-08-20T06:40:36.866Z,100303.00
2022-08-20T06:43:09.872Z,100304.00
2022-08-20T06:45:37.705Z,100309.00
2022-08-20T06:48:16.341Z,100306.00
2022-08-20T06:51:13.926Z,100309.00
2022-08-20T06:53:40.497Z,100309.00
2022-08-20T06:59:54.874Z,100306.00
2022-08-20T07:02:29.166Z,100316.00
2022-08-20T07:04:56.961Z,100314.00
2022-08-20T07:07:23.921Z,100311.00
2022-08-20T07:09:59.297Z,100318.00
2022-08-20T07:12:26.643Z,100321.00
2022-08-20T07:14:56.534Z,100326.00
2022-08-20T07:17:24.255Z,100330.00
2022-08-20T07:19:50.842Z,100324.00
2022-08-20T07:22:18.600Z,100333.00
2022-08-20T07:24:52.847Z,100330.00
2022-08-20T07:27:23.363Z,100334.00
2022-08-20T07:30:17.856Z,100343.00
2022-08-20T07:32:47.687Z,100346.00
2022-08-20T07:35:16.818Z,100354.00
2022-08-20T07:37:46.603Z,100345.00
2022-08-20T07:40:22.514Z,100352.00
2022-08-20T07:42:53.017Z,100349.00
2022-08-20T07:45:20.595Z,100345.00
2022-08-20T07:47:49.239Z,100346.00
2022-08-20T07:50:19.581Z,100351.00
2022-08-20T07:52:46.910Z,100347.00
2022-08-20T07:55:16.432Z,100350.00
2022-08-20T07:57:44.028Z,100356.00
2022-08-20T08:00:12.248Z,100349.00
2022-08-20T08:02:39.772Z,100358.00
2022-08-20T08:05:07.323Z,100353.00
2022-08-20T08:07:35.104Z,100359.00
2022-08-20T08:10:06.347Z,100365.00
2022-08-20T08:12:40.769Z,100369.00
2022-08-20T08:15:10.654Z,100370.00
2022-08-20T08:17:37.995Z,100370.00
2022-08-20T08:20:06.726Z,100383.00
2022-08-20T08:22:33.194Z,100377.00
2022-08-20T08:25:02.320Z,100371.00
2022-08-20T08:27:33.318Z,100378.00
2022-08-20T08:30:00.997Z,100375.00
2022-08-20T08:32:28.432Z,100372.00
2022-08-20T08:34:54.984Z,100378.00
2022-08-20T08:37:21.539Z,100376.00
2022-08-20T08:39:48.208Z,100385.00
2022-08-20T08:42:27.139Z,100384.00
2022-08-20T08:44:54.496Z,100384.00
2022-08-20T08:47:31.026Z,100388.00
2022-08-20T08:49:57.925Z,100392.00
2022-08-20T08:52:28.725Z,100387.00
2022-08-20T08:54:59.307Z,100387.00
2022-08-20T08:57:26.231Z,100393.00
2022-08-20T09:00:04.186Z,100387.00
2022-08-20T09:02:32.806Z,100391.00
2022-08-20T09:05:01.050Z,100400.00
2022-08-20T09:07:32.079Z,100404.00
2022-08-20T09:09:58.888Z,100406.00
2022-08-20T09:12:27.725Z,100402.00
2022-08-20T09:14:54.810Z,100413.00
2022-08-20T09:17:22.732Z,100410.00
2022-08-20T09:19:52.066Z,100408.00
2022-08-20T09:22:22.108Z,100421.00
2022-08-20T09:24:49.718Z,100410.00
2022-08-20T09:27:16.263Z,100413.00
2022-08-20T09:29:43.023Z,100415.00
2022-08-20T09:32:17.334Z,100408.00
2022-08-20T09:34:46.469Z,100403.00
2022-08-20T09:37:13.553Z,100408.00
2022-08-20T09:39:40.260Z,100402.00
2022-08-20T09:42:12.321Z,100408.00
2022-08-20T09:44:39.609Z,100406.00
2022-08-20T09:47:09.398Z,100407.00
2022-08-20T09:49:37.327Z,100409.00
2022-08-20T09:52:05.972Z,100409.00
2022-08-20T09:54:33.747Z,100404.00
2022-08-20T09:57:03.113Z,100405.00
2022-08-20T09:59:30.724Z,100397.00
2022-08-20T10:01:57.466Z,100399.00
2022-08-20T10:04:24.217Z,100404.00
2022-08-20T10:06:51.112Z,100407.00
2022-08-20T10:09:17.682Z,100411.00
2022-08-20T10:11:44.531Z,100402.00
2022-08-20T10:14:11.102Z,100404.00
2022-08-20T10:16:37.940Z,100403.00
2022-08-20T10:19:05.307Z,100403.00
2022-08-20T10:21:38.002Z,100410.00
2022-08-20T10:24:07.649Z,100405.00
2022-08-20T10:26:34.189Z,100395.00
2022-08-20T10:29:00.721Z,100383.00
2022-08-20T10:31:27.229Z,100398.00
2022-08-20T10:33:56.486Z,100389.00
2022-08-20T10:36:23.071Z,100401.00
2022-08-20T10:38:49.655Z,100399.00
2022-08-20T10:41:16.507Z,100399.00
2022-08-20T10:43:43.100Z,100405.00
2022-08-20T10:46:09.674Z,100396.00
2022-08-20T10:48:36.255Z,100408.00
2022-08-20T10:51:02.859Z,100400.00
2022-08-20T10:53:29.766Z,100412.00
2022-08-20T10:55:57.772Z,100406.00
2022-08-20T10:58:25.144Z,100411.00
2022-08-20T11:00:51.839Z,100416.00
2022-08-20T11:03:18.462Z,100414.00
2022-08-20T11:05:45.250Z,100419.00
2022-08-20T11:08:11.883Z,100418.00
2022-08-20T11:10:39.188Z,100418.00
2022-08-20T11:13:07.619Z,100431.00
2022-08-20T11:15:37.491Z,100422.00
2022-08-20T11:18:04.756Z,100420.00
2022-08-20T11:20:32.039Z,100412.00
2022-08-20T11:22:59.090Z,100423.00
2022-08-20T11:25:26.350Z,100412.00
2022-08-20T11:27:54.033Z,100420.00
2022-08-20T11:30:29.107Z,100420.00
2022-08-20T11:32:56.277Z,100419.00
2022-08-20T11:35:43.242Z,100423.00
2022-08-20T11:38:10.438Z,100414.00
2022-08-20T11:40:36.976Z,100417.00
2022-08-20T11:43:18.800Z,100423.00
2022-08-20T11:45:48.010Z,100421.00
2022-08-20T11:48:14.681Z,100417.00
2022-08-20T11:50:41.264Z,100415.00
2022-08-20T11:53:08.093Z,100421.00
2022-08-20T11:55:34.887Z,100426.00
2022-08-20T11:58:01.947Z,100429.00
2022-08-20T12:00:32.881Z,100430.00
2022-08-20T12:03:01.451Z,100422.00
2022-08-20T12:05:29.788Z,100435.00
2022-08-20T12:07:56.956Z,100428.00
2022-08-20T12:10:26.027Z,100430.00
2022-08-20T12:12:52.571Z,100431.00
2022-08-20T12:15:20.180Z,100426.00
2022-08-20T12:17:46.773Z,100429.00
2022-08-20T12:20:14.813Z,100434.00
2022-08-20T12:22:41.425Z,100424.00
2022-08-20T12:25:09.219Z,100430.00
2022-08-20T12:27:37.071Z,100430.00
2022-08-20T12:30:17.167Z,100437.00
2022-08-20T12:32:44.576Z,100438.00
2022-08-20T12:35:13.279Z,100444.00
2022-08-20T12:37:40.618Z,100436.00
2022-08-20T12:40:10.967Z,100441.00
2022-08-20T12:42:37.681Z,100443.00
2022-08-20T12:45:05.146Z,100440.00
2022-08-20T12:47:40.203Z,100435.00
2022-08-20T12:50:10.255Z,100434.00
2022-08-20T12:52:37.345Z,100441.00
2022-08-20T12:55:05.641Z,100442.00
2022-08-20T12:57:34.530Z,100432.00
2022-08-20T13:00:06.868Z,100436.00
2022-08-20T13:02:33.620Z,100443.00
2022-08-20T13:05:04.596Z,100442.00
2022-08-20T13:07:35.760Z,100442.00
2022-08-20T13:10:03.364Z,100450.00
2022-08-20T13:12:29.907Z,100443.00
2022-08-20T13:14:56.579Z,100448.00
2022-08-20T13:17:38.467Z,100445.00
2022-08-20T13:20:08.898Z,100440.00
2022-08-20T13:22:35.749Z,100443.00
2022-08-20T13:25:02.276Z,100452.00
2022-08-20T13:27:28.789Z,100449.00
2022-08-20T13:29:58.776Z,100451.00
2022-08-20T13:32:25.574Z,100457.00
2022-08-20T13:34:52.149Z,100455.00
2022-08-20T13:37:25.608Z,100448.00
2022-08-20T13:40:04.446Z,100432.00
2022-08-20T13:42:31.118Z,100451.00
2022-08-20T13:44:57.706Z,100448.00
2022-08-20T13:47:27.644Z,100452.00
2022-08-20T13:49:56.730Z,100459.00
2022-08-20T13:52:23.950Z,100458.00
2022-08-20T13:54:51.076Z,100459.00
2022-08-20T13:57:20.050Z,100454.00
2022-08-20T13:59:49.231Z,100450.00
2022-08-20T14:02:17.129Z,100448.00
2022-08-20T14:04:44.015Z,100448.00
2022-08-20T14:07:16.875Z,100451.00
2022-08-20T14:09:45.956Z,100449.00
2022-08-20T14:12:13.491Z,100450.00
2022-08-20T14:14:41.198Z,100453.00
2022-08-20T14:17:20.648Z,100459.00
2022-08-20T14:19:49.250Z,100458.00
2022-08-20T14:22:18.623Z,100459.00
2022-08-20T14:24:48.526Z,100459.00
2022-08-20T14:27:16.436Z,100461.00
2022-08-20T14:29:44.318Z,100465.00
2022-08-20T14:32:11.788Z,100459.00
2022-08-20T14:34:38.985Z,100463.00
2022-08-20T14:37:23.224Z,100462.00
2022-08-20T14:39:55.104Z,100461.00
2022-08-20T14:42:22.927Z,100462.00
2022-08-20T14:44:50.599Z,100465.00
2022-08-20T14:47:22.809Z,100470.00
2022-08-20T14:49:50.531Z,100466.00
2022-08-20T14:52:18.710Z,100474.00
2022-08-20T14:54:45.639Z,100464.00
2022-08-20T14:57:14.446Z,100462.00
2022-08-20T14:59:41.383Z,100465.00
2022-08-20T15:02:09.927Z,100466.00
2022-08-20T15:04:37.041Z,100462.00
2022-08-20T15:07:10.888Z,100467.00
2022-08-20T15:09:40.106Z,100467.00
2022-08-20T15:12:06.713Z,100463.00
2022-08-20T15:14:33.227Z,100464.00
2022-08-20T15:17:00.138Z,100470.00
2022-08-20T15:19:26.656Z,100470.00
2022-08-20T15:21:53.149Z,100469.00
2022-08-20T15:24:19.782Z,100468.00
2022-08-20T15:26:46.782Z,100469.00
2022-08-20T15:29:22.771Z,100475.00
2022-08-20T15:31:50.539Z,100477.00
2022-08-20T15:34:18.086Z,100473.00
2022-08-20T15:36:45.522Z,100476.00
2022-08-20T15:39:12.111Z,100479.00
2022-08-20T15:41:38.626Z,100476.00
2022-08-20T15:44:05.281Z,100476.00
2022-08-20T15:46:36.162Z,100469.00
2022-08-20T15:49:08.360Z,100462.00
2022-08-20T15:51:39.446Z,100465.00
2022-08-20T15:54:26.317Z,100464.00
2022-08-20T15:57:12.252Z,100469.00
2022-08-20T15:59:50.986Z,100469.00
2022-08-20T16:02:38.909Z,100470.00
2022-08-20T16:05:17.745Z,100471.00
2022-08-20T16:08:05.985Z,100477.00
2022-08-20T16:11:05.361Z,100478.00
2022-08-20T16:14:19.821Z,100481.00
2022-08-20T16:16:56.709Z,100480.00
2022-08-20T16:19:32.008Z,100479.00
2022-08-20T16:21:58.981Z,100477.00
2022-08-20T16:24:25.619Z,100479.00
2022-08-20T16:27:20.002Z,100486.00
2022-08-20T16:29:58.797Z,100483.00
2022-08-20T16:32:25.338Z,100492.00
2022-08-20T16:34:59.079Z,100498.00
2022-08-20T16:37:41.722Z,100500.00
2022-08-20T16:40:29.656Z,100500.00
2022-08-20T16:43:03.337Z,100506.00
2022-08-20T16:45:35.814Z,100503.00
2022-08-20T16:48:06.722Z,100500.00
2022-08-20T16:50:58.534Z,100496.00
2022-08-20T16:53:26.237Z,100495.00
2022-08-20T16:55:53.561Z,100494.00
2022-08-20T16:58:20.423Z,100494.00
2022-08-20T17:00:47.648Z,100484.00
2022-08-20T17:03:39.154Z,100491.00
2022-08-20T17:06:37.490Z,100487.00
2022-08-20T17:09:14.315Z,100489.00
2022-08-20T17:11:45.519Z,100496.00
2022-08-20T17:14:18.591Z,100497.00
2022-08-20T17:16:47.993Z,100491.00
2022-08-20T17:19:17.866Z,100493.00
2022-08-20T17:21:44.611Z,100489.00
2022-08-20T17:24:23.489Z,100495.00
2022-08-20T17:26:58.011Z,100497.00
2022-08-20T17:29:26.888Z,100499.00
2022-08-20T17:31:59.233Z,100499.00
2022-08-20T17:34:32.641Z,100501.00
2022-08-20T17:37:04.925Z,100505.00
2022-08-20T17:39:31.706Z,100509.00
2022-08-20T17:42:10.289Z,100510.00
2022-08-20T17:44:42.564Z,100515.00
2022-08-20T17:47:15.964Z,100520.00
2022-08-20T17:49:54.986Z,100525.00
2022-08-20T17:52:41.711Z,100528.00
2022-08-20T17:55:08.609Z,100526.00
2022-08-20T17:57:37.982Z,100519.00
2022-08-20T18:00:14.830Z,100525.00
2022-08-20T18:02:42.559Z,100525.00
2022-08-20T18:05:14.829Z,100526.00
2022-08-20T18:08:04.515Z,100525.00
2022-08-20T18:10:38.739Z,100536.00
2022-08-20T18:13:18.917Z,100537.00
2022-08-20T18:15:50.773Z,100530.00
2022-08-20T18:18:56.343Z,100543.00
2022-08-20T18:21:51.791Z,100535.00
2022-08-20T18:24:30.317Z,100531.00
2022-08-20T18:27:01.596Z,100539.00
2022-08-20T18:29:36.969Z,100535.00
2022-08-20T18:32:06.222Z,100543.00
2022-08-20T18:34:32.722Z,100540.00
2022-08-20T18:37:04.310Z,100541.00
2022-08-20T18:39:34.099Z,100537.00
2022-08-20T18:42:33.898Z,100545.00
2022-08-20T18:45:00.766Z,100536.00
2022-08-20T18:47:33.408Z,100548.00
2022-08-20T18:50:16.079Z,100551.00
2022-08-20T18:53:25.068Z,100551.00
2022-08-20T18:56:02.516Z,100556.00
2022-08-20T18:58:48.529Z,100553.00
2022-08-20T19:01:15.222Z,100560.00
2022-08-20T19:03:45.689Z,100549.00
2022-08-20T19:06:27.215Z,100556.00
2022-08-20T19:09:09.210Z,100556.00
2022-08-20T19:12:10.145Z,100555.00
2022-08-20T19:14:45.837Z,100553.00
2022-08-20T19:17:31.337Z,100557.00
2022-08-20T19:20:07.228Z,100553.00
2022-08-20T19:22:34.742Z,100560.00
2022-08-20T19:25:01.382Z,100558.00
2022-08-20T19:27:29.266Z,100563.00
2022-08-20T19:29:57.633Z,100566.00
2022-08-20T19:32:27.091Z,100557.00
2022-08-20T19:35:00.392Z,100561.00
2022-08-20T19:37:36.249Z,100555.00
2022-08-20T19:40:19.958Z,100563.00
2022-08-20T19:42:46.566Z,100560.00
2022-08-20T19:45:23.193Z,100558.00
2022-08-20T19:48:00.244Z,100557.00
2022-08-20T19:50:39.206Z,100555.00
2022-08-20T19:53:26.487Z,100548.00
2022-08-20T19:56:14.314Z,100547.00
2022-08-20T19:58:42.286Z,100558.00
2022-08-20T20:01:18.017Z,100556.00
2022-08-20T20:03:56.292Z,100559.00
2022-08-20T20:06:25.558Z,100566.00
2022-08-20T20:08:59.621Z,100567.00
2022-08-20T20:11:40.623Z,100568.00
2022-08-20T20:14:09.532Z,100566.00
2022-08-20T20:16:37.453Z,100569.00
2022-08-20T20:19:25.947Z,100564.00
2022-08-20T20:22:04.542Z,100572.00
2022-08-20T20:24:44.042Z,100569.00
2022-08-20T20:27:22.523Z,100565.00
2022-08-20T20:29:49.087Z,100564.00
2022-08-20T20:32:24.314Z,100561.00
2022-08-20T20:34:56.371Z,100564.00
2022-08-20T20:37:49.435Z,100561.00
2022-08-20T20:40:28.243Z,100550.00
2022-08-20T20:43:02.383Z,100560.00
2022-08-20T20:46:11.912Z,100556.00
2022-08-20T20:48:45.977Z,100551.00
2022-08-20T20:51:23.270Z,100558.00
2022-08-20T20:53:54.833Z,100557.00
2022-08-20T20:56:27.627Z,100557.00
2022-08-20T20:58:55.606Z,100551.00
2022-08-20T21:01:27.349Z,100554.00
2022-08-20T21:04:10.001Z,100558.00
2022-08-20T21:06:36.683Z,100548.00
2022-08-20T21:09:03.273Z,100550.00
2022-08-20T21:11:29.793Z,100559.00
2022-08-20T21:13:56.565Z,100552.00
2022-08-20T21:16:23.096Z,100553.00
2022-08-20T21:18:49.661Z,100556.00
2022-08-20T21:21:16.232Z,100547.00
2022-08-20T21:23:42.783Z,100544.00
2022-08-20T21:26:09.596Z,100545.00
2022-08-20T21:28:36.237Z,100541.00
2022-08-20T21:31:03.189Z,100538.00
2022-08-20T21:33:29.714Z,100539.00
2022-08-20T21:35:56.805Z,100537.00
2022-08-20T21:38:23.895Z,100544.00
2022-08-20T21:40:50.573Z,100537.00
2022-08-20T21:43:17.182Z,100537.00
2022-08-20T21:45:45.488Z,100533.00
2022-08-20T21:48:16.443Z,100533.00
2022-08-20T21:50:43.542Z,100542.00
2022-08-20T21:53:12.774Z,100526.00
2022-08-20T21:55:40.366Z,100523.00
2022-08-20T21:58:07.306Z,100524.00
2022-08-20T22:01:01.482Z,100528.00
2022-08-20T22:03:38.535Z,100521.00
2022-08-20T22:06:07.226Z,100519.00
2022-08-20T22:08:33.960Z,100516.00
2022-08-20T22:11:00.918Z,100515.00
2022-08-20T22:13:31.585Z,100517.00
2022-08-20T22:16:03.914Z,100518.00
2022-08-20T22:18:30.759Z,100521.00
2022-08-20T22:20:57.419Z,100520.00
2022-08-20T22:23:24.810Z,100514.00
2022-08-20T22:25:51.477Z,100516.00
2022-08-20T22:28:18.882Z,100516.00
2022-08-20T22:30:45.408Z,100521.00
2022-08-20T22:33:14.945Z,100515.00
2022-08-20T22:35:47.056Z,100521.00
2022-08-20T22:38:13.704Z,100517.00
2022-08-20T22:40:40.977Z,100519.00
2022-08-20T22:43:07.614Z,100524.00
2022-08-20T22:45:34.555Z,100525.00
2022-08-20T22:48:01.804Z,100520.00
2022-08-20T22:50:28.514Z,100519.00
2022-08-20T22:52:55.269Z,100531.00
2022-08-20T22:55:21.961Z,100528.00
2022-08-20T22:57:48.536Z,100527.00
2022-08-20T23:00:16.939Z,100529.00
2022-08-20T23:02:45.019Z,100525.00
2022-08-20T23:05:14.650Z,100522.00
2022-08-20T23:07:41.671Z,100533.00
2022-08-20T23:10:08.536Z,100529.00
2022-08-20T23:12:35.274Z,100522.00
2022-08-20T23:15:01.894Z,100530.00
2022-08-20T23:17:28.850Z,100520.00
2022-08-20T23:19:55.427Z,100533.00
2022-08-20T23:22:22.332Z,100526.00
2022-08-20T23:24:48.943Z,100530.00
2022-08-20T23:27:17.900Z,100533.00
2022-08-20T23:29:45.045Z,100528.00
2022-08-20T23:32:11.962Z,100524.00
2022-08-20T23:34:39.048Z,100523.00
2022-08-20T23:37:06.073Z,100535.00
2022-08-20T23:39:32.817Z,100527.00
2022-08-20T23:41:59.952Z,100521.00
2022-08-20T23:44:27.326Z,100526.00
2022-08-20T23:47:00.091Z,100524.00
2022-08-20T23:49:28.762Z,100525.00
2022-08-20T23:51:55.896Z,100525.00
2022-08-20T23:54:22.507Z,100521.00
2022-08-20T23:56:49.451Z,100526.00
2022-08-20T23:59:16.155Z,100524.00
